sensor_id;sensor_type;location;lat;lon;timestamp;P1;durP1;ratioP1;P2;durP2;ratioP2
41897;SDS011;27576;53.366;-1.498;2023-04-30T00:01:18;45.67;;;33.60;;
41897;SDS011;27576;53.366;-1.498;2023-04-30T00:03:44;44.03;;;32.83;;
41897;SDS011;27576;53.366;-1.498;2023-04-30T00:06:09;41.05;;;28.92;;
41897;SDS011;27576;53.366;-1.498;2023-04-30T00:08:34;42.63;;;32.25;;
41897;SDS011;27576;53.366;-1.498;2023-04-30T00:11:00;44.08;;;31.98;;
41897;SDS011;27576;53.366;-1.498;2023-04-30T00:13:28;41.30;;;30.33;;
41897;SDS011;27576;53.366;-1.498;2023-04-30T00:15:53;44.50;;;33.95;;
41897;SDS011;27576;53.366;-1.498;2023-04-30T00:18:19;47.13;;;33.05;;
41897;SDS011;27576;53.366;-1.498;2023-04-30T00:20:44;39.90;;;31.10;;
41897;SDS011;27576;53.366;-1.498;2023-04-30T00:23:09;39.35;;;28.27;;
41897;SDS011;27576;53.366;-1.498;2023-04-30T00:25:35;44.10;;;32.33;;
41897;SDS011;27576;53.366;-1.498;2023-04-30T00:28:00;39.53;;;32.20;;
41897;SDS011;27576;53.366;-1.498;2023-04-30T00:30:26;38.85;;;29.80;;
41897;SDS011;27576;53.366;-1.498;2023-04-30T00:32:51;39.15;;;30.42;;
41897;SDS011;27576;53.366;-1.498;2023-04-30T00:35:17;39.85;;;29.67;;
41897;SDS011;27576;53.366;-1.498;2023-04-30T00:37:42;38.10;;;30.80;;
41897;SDS011;27576;53.366;-1.498;2023-04-30T00:40:07;42.42;;;30.95;;
41897;SDS011;27576;53.366;-1.498;2023-04-30T00:42:33;43.83;;;32.00;;
41897;SDS011;27576;53.366;-1.498;2023-04-30T00:44:59;46.55;;;34.53;;
41897;SDS011;27576;53.366;-1.498;2023-04-30T00:47:24;43.03;;;31.45;;
41897;SDS011;27576;53.366;-1.498;2023-04-30T00:49:49;51.50;;;36.72;;
41897;SDS011;27576;53.366;-1.498;2023-04-30T00:52:15;54.22;;;37.65;;
41897;SDS011;27576;53.366;-1.498;2023-04-30T00:54:41;50.55;;;36.83;;
41897;SDS011;27576;53.366;-1.498;2023-04-30T00:57:06;45.72;;;34.30;;
41897;SDS011;27576;53.366;-1.498;2023-04-30T00:59:36;45.05;;;34.42;;
41897;SDS011;27576;53.366;-1.498;2023-04-30T01:02:02;49.70;;;36.78;;
41897;SDS011;27576;53.366;-1.498;2023-04-30T01:04:27;49.35;;;36.05;;
41897;SDS011;27576;53.366;-1.498;2023-04-30T01:06:53;44.72;;;33.08;;
41897;SDS011;27576;53.366;-1.498;2023-04-30T01:09:19;47.95;;;35.35;;
41897;SDS011;27576;53.366;-1.498;2023-04-30T01:17:16;51.33;;;38.08;;
41897;SDS011;27576;53.366;-1.498;2023-04-30T01:19:52;42.97;;;32.38;;
41897;SDS011;27576;53.366;-1.498;2023-04-30T01:30:31;46.25;;;34.22;;
41897;SDS011;27576;53.366;-1.498;2023-04-30T01:32:57;41.00;;;29.75;;
41897;SDS011;27576;53.366;-1.498;2023-04-30T01:35:25;45.47;;;33.85;;
41897;SDS011;27576;53.366;-1.498;2023-04-30T01:40:42;42.58;;;30.42;;
41897;SDS011;27576;53.366;-1.498;2023-04-30T01:48:42;45.38;;;32.58;;
41897;SDS011;27576;53.366;-1.498;2023-04-30T01:51:18;50.28;;;36.25;;
41897;SDS011;27576;53.366;-1.498;2023-04-30T01:53:48;44.08;;;34.00;;
41897;SDS011;27576;53.366;-1.498;2023-04-30T01:56:22;43.53;;;32.53;;
41897;SDS011;27576;53.366;-1.498;2023-04-30T01:58:55;41.03;;;30.40;;
41897;SDS011;27576;53.366;-1.498;2023-04-30T02:01:28;45.45;;;33.25;;
41897;SDS011;27576;53.366;-1.498;2023-04-30T02:03:54;55.33;;;39.65;;
41897;SDS011;27576;53.366;-1.498;2023-04-30T02:06:20;48.75;;;35.50;;
41897;SDS011;27576;53.366;-1.498;2023-04-30T02:08:46;55.75;;;39.28;;
41897;SDS011;27576;53.366;-1.498;2023-04-30T02:11:11;52.38;;;38.03;;
41897;SDS011;27576;53.366;-1.498;2023-04-30T02:13:36;47.17;;;36.67;;
41897;SDS011;27576;53.366;-1.498;2023-04-30T02:16:02;58.08;;;41.08;;
41897;SDS011;27576;53.366;-1.498;2023-04-30T02:18:28;48.15;;;36.97;;
41897;SDS011;27576;53.366;-1.498;2023-04-30T02:20:53;51.45;;;37.97;;
41897;SDS011;27576;53.366;-1.498;2023-04-30T02:23:18;48.22;;;36.13;;
41897;SDS011;27576;53.366;-1.498;2023-04-30T02:25:44;55.38;;;39.47;;
41897;SDS011;27576;53.366;-1.498;2023-04-30T02:28:09;47.33;;;35.58;;
41897;SDS011;27576;53.366;-1.498;2023-04-30T02:30:35;54.78;;;39.40;;
41897;SDS011;27576;53.366;-1.498;2023-04-30T02:33:00;48.65;;;35.05;;
41897;SDS011;27576;53.366;-1.498;2023-04-30T02:35:27;45.40;;;34.80;;
41897;SDS011;27576;53.366;-1.498;2023-04-30T02:37:52;48.95;;;35.42;;
41897;SDS011;27576;53.366;-1.498;2023-04-30T02:40:17;58.55;;;38.85;;
41897;SDS011;27576;53.366;-1.498;2023-04-30T02:42:43;54.38;;;38.28;;
41897;SDS011;27576;53.366;-1.498;2023-04-30T02:45:08;48.00;;;35.97;;
41897;SDS011;27576;53.366;-1.498;2023-04-30T02:47:34;51.75;;;33.80;;
41897;SDS011;27576;53.366;-1.498;2023-04-30T02:49:59;48.17;;;34.97;;
41897;SDS011;27576;53.366;-1.498;2023-04-30T02:52:25;48.60;;;33.75;;
41897;SDS011;27576;53.366;-1.498;2023-04-30T02:54:50;47.03;;;35.80;;
41897;SDS011;27576;53.366;-1.498;2023-04-30T02:57:16;50.47;;;38.40;;
41897;SDS011;27576;53.366;-1.498;2023-04-30T02:59:41;50.15;;;35.28;;
41897;SDS011;27576;53.366;-1.498;2023-04-30T03:02:09;49.42;;;33.92;;
41897;SDS011;27576;53.366;-1.498;2023-04-30T03:04:35;56.97;;;40.85;;
41897;SDS011;27576;53.366;-1.498;2023-04-30T03:07:00;56.05;;;40.47;;
41897;SDS011;27576;53.366;-1.498;2023-04-30T03:09:29;55.78;;;40.90;;
41897;SDS011;27576;53.366;-1.498;2023-04-30T03:11:56;51.80;;;37.22;;
41897;SDS011;27576;53.366;-1.498;2023-04-30T03:14:21;57.88;;;41.63;;
41897;SDS011;27576;53.366;-1.498;2023-04-30T03:16:47;68.10;;;45.22;;
41897;SDS011;27576;53.366;-1.498;2023-04-30T03:19:12;56.83;;;41.80;;
41897;SDS011;27576;53.366;-1.498;2023-04-30T03:21:38;56.67;;;42.28;;
41897;SDS011;27576;53.366;-1.498;2023-04-30T03:24:03;52.72;;;38.88;;
41897;SDS011;27576;53.366;-1.498;2023-04-30T03:26:29;54.17;;;40.92;;
41897;SDS011;27576;53.366;-1.498;2023-04-30T03:28:55;58.25;;;43.13;;
41897;SDS011;27576;53.366;-1.498;2023-04-30T03:31:20;54.13;;;40.22;;
41897;SDS011;27576;53.366;-1.498;2023-04-30T03:33:45;59.10;;;43.63;;
41897;SDS011;27576;53.366;-1.498;2023-04-30T03:36:11;53.58;;;39.55;;
41897;SDS011;27576;53.366;-1.498;2023-04-30T03:38:37;51.13;;;35.67;;
41897;SDS011;27576;53.366;-1.498;2023-04-30T03:41:02;55.72;;;36.85;;
41897;SDS011;27576;53.366;-1.498;2023-04-30T03:43:28;57.83;;;42.05;;
41897;SDS011;27576;53.366;-1.498;2023-04-30T03:45:53;60.85;;;44.50;;
41897;SDS011;27576;53.366;-1.498;2023-04-30T03:48:18;60.40;;;42.65;;
41897;SDS011;27576;53.366;-1.498;2023-04-30T03:50:44;59.95;;;41.53;;
41897;SDS011;27576;53.366;-1.498;2023-04-30T03:53:10;61.03;;;42.42;;
41897;SDS011;27576;53.366;-1.498;2023-04-30T03:55:35;51.30;;;38.25;;
41897;SDS011;27576;53.366;-1.498;2023-04-30T03:58:01;59.35;;;42.35;;
41897;SDS011;27576;53.366;-1.498;2023-04-30T04:00:27;50.97;;;37.65;;
41897;SDS011;27576;53.366;-1.498;2023-04-30T04:02:53;62.78;;;43.42;;
41897;SDS011;27576;53.366;-1.498;2023-04-30T04:05:19;55.22;;;40.65;;
41897;SDS011;27576;53.366;-1.498;2023-04-30T04:07:44;60.25;;;42.45;;
41897;SDS011;27576;53.366;-1.498;2023-04-30T04:10:09;55.88;;;38.97;;
41897;SDS011;27576;53.366;-1.498;2023-04-30T04:12:35;55.70;;;39.92;;
41897;SDS011;27576;53.366;-1.498;2023-04-30T04:15:00;68.40;;;47.40;;
41897;SDS011;27576;53.366;-1.498;2023-04-30T04:17:25;71.88;;;46.88;;
41897;SDS011;27576;53.366;-1.498;2023-04-30T04:19:51;66.35;;;45.90;;
41897;SDS011;27576;53.366;-1.498;2023-04-30T04:22:16;67.82;;;46.83;;
41897;SDS011;27576;53.366;-1.498;2023-04-30T04:24:41;68.28;;;44.55;;
41897;SDS011;27576;53.366;-1.498;2023-04-30T04:27:07;59.33;;;40.80;;
41897;SDS011;27576;53.366;-1.498;2023-04-30T04:29:32;63.53;;;42.63;;
41897;SDS011;27576;53.366;-1.498;2023-04-30T04:31:58;80.55;;;49.55;;
41897;SDS011;27576;53.366;-1.498;2023-04-30T04:34:28;64.97;;;44.42;;
41897;SDS011;27576;53.366;-1.498;2023-04-30T04:36:53;69.38;;;46.33;;
41897;SDS011;27576;53.366;-1.498;2023-04-30T04:39:18;63.30;;;42.50;;
41897;SDS011;27576;53.366;-1.498;2023-04-30T04:41:44;72.82;;;47.45;;
41897;SDS011;27576;53.366;-1.498;2023-04-30T04:44:09;74.25;;;48.35;;
41897;SDS011;27576;53.366;-1.498;2023-04-30T04:46:35;72.18;;;48.42;;
41897;SDS011;27576;53.366;-1.498;2023-04-30T04:49:02;74.22;;;49.15;;
41897;SDS011;27576;53.366;-1.498;2023-04-30T04:51:28;73.25;;;46.38;;
41897;SDS011;27576;53.366;-1.498;2023-04-30T04:53:53;74.32;;;48.63;;
41897;SDS011;27576;53.366;-1.498;2023-04-30T04:56:19;73.65;;;48.53;;
41897;SDS011;27576;53.366;-1.498;2023-04-30T04:58:44;73.68;;;47.53;;
41897;SDS011;27576;53.366;-1.498;2023-04-30T05:01:10;73.43;;;48.05;;
41897;SDS011;27576;53.366;-1.498;2023-04-30T05:03:35;74.85;;;46.85;;
41897;SDS011;27576;53.366;-1.498;2023-04-30T05:06:01;68.90;;;43.17;;
41897;SDS011;27576;53.366;-1.498;2023-04-30T05:08:27;77.38;;;50.17;;
41897;SDS011;27576;53.366;-1.498;2023-04-30T05:10:53;71.82;;;46.22;;
41897;SDS011;27576;53.366;-1.498;2023-04-30T05:13:18;86.28;;;51.92;;
41897;SDS011;27576;53.366;-1.498;2023-04-30T05:15:44;71.15;;;45.45;;
41897;SDS011;27576;53.366;-1.498;2023-04-30T05:18:09;71.95;;;46.30;;
41897;SDS011;27576;53.366;-1.498;2023-04-30T05:20:34;73.28;;;47.80;;
41897;SDS011;27576;53.366;-1.498;2023-04-30T05:23:00;76.50;;;48.70;;
41897;SDS011;27576;53.366;-1.498;2023-04-30T05:25:25;68.80;;;45.33;;
41897;SDS011;27576;53.366;-1.498;2023-04-30T05:27:50;74.35;;;48.05;;
41897;SDS011;27576;53.366;-1.498;2023-04-30T05:30:16;72.13;;;46.92;;
41897;SDS011;27576;53.366;-1.498;2023-04-30T05:32:41;68.78;;;45.88;;
41897;SDS011;27576;53.366;-1.498;2023-04-30T05:35:07;56.42;;;39.70;;
41897;SDS011;27576;53.366;-1.498;2023-04-30T05:37:33;57.25;;;39.05;;
41897;SDS011;27576;53.366;-1.498;2023-04-30T05:39:58;65.13;;;42.08;;
41897;SDS011;27576;53.366;-1.498;2023-04-30T05:42:24;66.13;;;43.42;;
41897;SDS011;27576;53.366;-1.498;2023-04-30T05:44:49;59.25;;;40.88;;
41897;SDS011;27576;53.366;-1.498;2023-04-30T05:47:14;59.95;;;40.78;;
41897;SDS011;27576;53.366;-1.498;2023-04-30T05:49:40;61.08;;;42.20;;
41897;SDS011;27576;53.366;-1.498;2023-04-30T05:52:05;53.78;;;36.65;;
41897;SDS011;27576;53.366;-1.498;2023-04-30T05:54:31;52.55;;;35.75;;
41897;SDS011;27576;53.366;-1.498;2023-04-30T05:56:56;55.33;;;36.95;;
41897;SDS011;27576;53.366;-1.498;2023-04-30T05:59:22;63.70;;;41.35;;
41897;SDS011;27576;53.366;-1.498;2023-04-30T06:01:47;56.95;;;37.67;;
41897;SDS011;27576;53.366;-1.498;2023-04-30T06:04:12;59.47;;;41.35;;
41897;SDS011;27576;53.366;-1.498;2023-04-30T06:06:38;57.58;;;39.47;;
41897;SDS011;27576;53.366;-1.498;2023-04-30T06:09:03;67.03;;;42.60;;
41897;SDS011;27576;53.366;-1.498;2023-04-30T06:11:29;54.53;;;37.80;;
41897;SDS011;27576;53.366;-1.498;2023-04-30T06:13:54;61.58;;;41.63;;
41897;SDS011;27576;53.366;-1.498;2023-04-30T06:16:20;58.05;;;40.05;;
41897;SDS011;27576;53.366;-1.498;2023-04-30T06:18:46;58.88;;;39.92;;
41897;SDS011;27576;53.366;-1.498;2023-04-30T06:21:11;57.47;;;37.72;;
41897;SDS011;27576;53.366;-1.498;2023-04-30T06:23:36;63.03;;;40.83;;
41897;SDS011;27576;53.366;-1.498;2023-04-30T06:26:02;63.95;;;41.75;;
41897;SDS011;27576;53.366;-1.498;2023-04-30T06:28:27;58.92;;;39.70;;
41897;SDS011;27576;53.366;-1.498;2023-04-30T06:30:53;53.78;;;36.42;;
41897;SDS011;27576;53.366;-1.498;2023-04-30T06:33:19;54.63;;;37.72;;
41897;SDS011;27576;53.366;-1.498;2023-04-30T06:35:45;57.83;;;38.65;;
41897;SDS011;27576;53.366;-1.498;2023-04-30T06:38:10;51.28;;;36.88;;
41897;SDS011;27576;53.366;-1.498;2023-04-30T06:40:35;49.70;;;35.55;;
41897;SDS011;27576;53.366;-1.498;2023-04-30T06:43:01;47.92;;;34.72;;
41897;SDS011;27576;53.366;-1.498;2023-04-30T06:45:26;47.47;;;34.20;;
41897;SDS011;27576;53.366;-1.498;2023-04-30T06:47:52;45.58;;;30.77;;
41897;SDS011;27576;53.366;-1.498;2023-04-30T06:50:18;38.92;;;29.50;;
41897;SDS011;27576;53.366;-1.498;2023-04-30T06:52:45;43.95;;;27.88;;
41897;SDS011;27576;53.366;-1.498;2023-04-30T06:55:10;34.33;;;24.90;;
41897;SDS011;27576;53.366;-1.498;2023-04-30T06:57:36;35.80;;;23.45;;
41897;SDS011;27576;53.366;-1.498;2023-04-30T07:00:02;34.28;;;24.13;;
41897;SDS011;27576;53.366;-1.498;2023-04-30T07:02:31;34.75;;;22.45;;
41897;SDS011;27576;53.366;-1.498;2023-04-30T07:04:57;30.67;;;21.80;;
41897;SDS011;27576;53.366;-1.498;2023-04-30T07:07:22;28.70;;;20.42;;
41897;SDS011;27576;53.366;-1.498;2023-04-30T07:09:48;24.42;;;18.98;;
41897;SDS011;27576;53.366;-1.498;2023-04-30T07:12:14;21.23;;;16.77;;
41897;SDS011;27576;53.366;-1.498;2023-04-30T07:14:39;21.15;;;16.77;;
41897;SDS011;27576;53.366;-1.498;2023-04-30T07:17:05;28.33;;;17.63;;
41897;SDS011;27576;53.366;-1.498;2023-04-30T07:19:30;19.92;;;15.38;;
41897;SDS011;27576;53.366;-1.498;2023-04-30T07:21:56;18.05;;;14.45;;
41897;SDS011;27576;53.366;-1.498;2023-04-30T07:24:22;26.13;;;15.82;;
41897;SDS011;27576;53.366;-1.498;2023-04-30T07:26:47;22.38;;;15.75;;
41897;SDS011;27576;53.366;-1.498;2023-04-30T07:29:12;17.20;;;13.55;;
41897;SDS011;27576;53.366;-1.498;2023-04-30T07:31:38;17.48;;;14.20;;
41897;SDS011;27576;53.366;-1.498;2023-04-30T07:34:03;17.70;;;13.60;;
41897;SDS011;27576;53.366;-1.498;2023-04-30T07:36:28;17.15;;;12.10;;
41897;SDS011;27576;53.366;-1.498;2023-04-30T07:38:54;20.23;;;14.75;;
41897;SDS011;27576;53.366;-1.498;2023-04-30T07:41:20;15.65;;;12.38;;
41897;SDS011;27576;53.366;-1.498;2023-04-30T07:43:45;16.60;;;11.75;;
41897;SDS011;27576;53.366;-1.498;2023-04-30T07:46:11;16.38;;;10.45;;
41897;SDS011;27576;53.366;-1.498;2023-04-30T07:48:36;14.50;;;10.82;;
41897;SDS011;27576;53.366;-1.498;2023-04-30T07:51:02;13.75;;;10.45;;
41897;SDS011;27576;53.366;-1.498;2023-04-30T07:53:28;14.20;;;10.35;;
41897;SDS011;27576;53.366;-1.498;2023-04-30T07:55:54;15.18;;;9.07;;
41897;SDS011;27576;53.366;-1.498;2023-04-30T07:58:19;13.00;;;10.80;;
41897;SDS011;27576;53.366;-1.498;2023-04-30T08:00:45;14.60;;;11.10;;
41897;SDS011;27576;53.366;-1.498;2023-04-30T08:03:10;13.93;;;11.07;;
41897;SDS011;27576;53.366;-1.498;2023-04-30T08:05:36;14.80;;;10.63;;
41897;SDS011;27576;53.366;-1.498;2023-04-30T08:08:01;20.48;;;11.63;;
41897;SDS011;27576;53.366;-1.498;2023-04-30T08:10:27;15.23;;;11.50;;
41897;SDS011;27576;53.366;-1.498;2023-04-30T08:12:53;13.70;;;10.32;;
41897;SDS011;27576;53.366;-1.498;2023-04-30T08:15:18;14.77;;;11.25;;
41897;SDS011;27576;53.366;-1.498;2023-04-30T08:17:50;14.23;;;10.25;;
41897;SDS011;27576;53.366;-1.498;2023-04-30T08:20:16;14.43;;;10.52;;
41897;SDS011;27576;53.366;-1.498;2023-04-30T08:22:41;16.15;;;11.73;;
41897;SDS011;27576;53.366;-1.498;2023-04-30T08:25:09;15.45;;;11.13;;
41897;SDS011;27576;53.366;-1.498;2023-04-30T08:27:36;11.55;;;8.90;;
41897;SDS011;27576;53.366;-1.498;2023-04-30T08:30:01;16.60;;;11.30;;
41897;SDS011;27576;53.366;-1.498;2023-04-30T08:32:26;11.73;;;10.05;;
41897;SDS011;27576;53.366;-1.498;2023-04-30T08:34:53;14.27;;;10.43;;
41897;SDS011;27576;53.366;-1.498;2023-04-30T08:37:18;16.35;;;11.45;;
41897;SDS011;27576;53.366;-1.498;2023-04-30T08:39:43;14.15;;;10.93;;
41897;SDS011;27576;53.366;-1.498;2023-04-30T08:42:09;13.10;;;10.35;;
41897;SDS011;27576;53.366;-1.498;2023-04-30T08:44:39;16.33;;;11.73;;
41897;SDS011;27576;53.366;-1.498;2023-04-30T08:47:07;13.75;;;10.43;;
41897;SDS011;27576;53.366;-1.498;2023-04-30T08:49:37;11.98;;;10.45;;
41897;SDS011;27576;53.366;-1.498;2023-04-30T08:52:02;13.57;;;8.98;;
41897;SDS011;27576;53.366;-1.498;2023-04-30T08:54:29;15.88;;;9.93;;
41897;SDS011;27576;53.366;-1.498;2023-04-30T08:56:56;12.43;;;10.02;;
41897;SDS011;27576;53.366;-1.498;2023-04-30T08:59:22;15.60;;;11.55;;
41897;SDS011;27576;53.366;-1.498;2023-04-30T09:01:47;11.85;;;9.43;;
41897;SDS011;27576;53.366;-1.498;2023-04-30T09:04:13;14.15;;;10.32;;
41897;SDS011;27576;53.366;-1.498;2023-04-30T09:06:38;14.77;;;10.15;;
41897;SDS011;27576;53.366;-1.498;2023-04-30T09:09:08;13.23;;;9.45;;
41897;SDS011;27576;53.366;-1.498;2023-04-30T09:11:35;13.10;;;9.38;;
41897;SDS011;27576;53.366;-1.498;2023-04-30T09:14:01;15.90;;;11.68;;
41897;SDS011;27576;53.366;-1.498;2023-04-30T09:16:43;13.77;;;10.52;;
41897;SDS011;27576;53.366;-1.498;2023-04-30T09:19:27;13.23;;;9.68;;
41897;SDS011;27576;53.366;-1.498;2023-04-30T09:21:55;16.83;;;11.68;;
41897;SDS011;27576;53.366;-1.498;2023-04-30T09:24:21;15.40;;;10.48;;
41897;SDS011;27576;53.366;-1.498;2023-04-30T09:26:47;15.43;;;11.20;;
41897;SDS011;27576;53.366;-1.498;2023-04-30T09:29:13;13.30;;;10.02;;
41897;SDS011;27576;53.366;-1.498;2023-04-30T09:31:41;12.68;;;10.98;;
41897;SDS011;27576;53.366;-1.498;2023-04-30T09:34:12;15.85;;;12.88;;
41897;SDS011;27576;53.366;-1.498;2023-04-30T09:36:50;14.38;;;12.23;;
41897;SDS011;27576;53.366;-1.498;2023-04-30T09:39:19;14.57;;;10.25;;
41897;SDS011;27576;53.366;-1.498;2023-04-30T09:41:44;13.32;;;11.27;;
41897;SDS011;27576;53.366;-1.498;2023-04-30T09:44:25;17.52;;;12.60;;
41897;SDS011;27576;53.366;-1.498;2023-04-30T09:46:56;16.58;;;12.95;;
41897;SDS011;27576;53.366;-1.498;2023-04-30T09:49:22;15.40;;;12.98;;
41897;SDS011;27576;53.366;-1.498;2023-04-30T09:51:54;19.25;;;13.20;;
41897;SDS011;27576;53.366;-1.498;2023-04-30T09:54:22;18.30;;;13.65;;
41897;SDS011;27576;53.366;-1.498;2023-04-30T09:56:51;17.48;;;13.88;;
41897;SDS011;27576;53.366;-1.498;2023-04-30T09:59:19;17.05;;;13.52;;
41897;SDS011;27576;53.366;-1.498;2023-04-30T10:01:47;18.95;;;14.30;;
41897;SDS011;27576;53.366;-1.498;2023-04-30T10:04:14;16.67;;;13.23;;
41897;SDS011;27576;53.366;-1.498;2023-04-30T10:06:40;19.42;;;14.80;;
41897;SDS011;27576;53.366;-1.498;2023-04-30T10:09:06;19.08;;;16.17;;
41897;SDS011;27576;53.366;-1.498;2023-04-30T10:11:35;16.75;;;12.77;;
41897;SDS011;27576;53.366;-1.498;2023-04-30T10:14:02;20.50;;;13.73;;
41897;SDS011;27576;53.366;-1.498;2023-04-30T10:19:03;20.95;;;13.50;;
41897;SDS011;27576;53.366;-1.498;2023-04-30T10:21:34;18.98;;;14.13;;
41897;SDS011;27576;53.366;-1.498;2023-04-30T10:24:04;19.35;;;15.07;;
41897;SDS011;27576;53.366;-1.498;2023-04-30T10:26:30;13.55;;;12.10;;
41897;SDS011;27576;53.366;-1.498;2023-04-30T10:28:56;14.73;;;12.07;;
41897;SDS011;27576;53.366;-1.498;2023-04-30T10:31:25;19.50;;;14.52;;
41897;SDS011;27576;53.366;-1.498;2023-04-30T10:36:42;17.30;;;12.48;;
41897;SDS011;27576;53.366;-1.498;2023-04-30T10:39:12;20.27;;;15.18;;
41897;SDS011;27576;53.366;-1.498;2023-04-30T10:41:46;18.20;;;13.98;;
41897;SDS011;27576;53.366;-1.498;2023-04-30T10:44:13;18.05;;;15.02;;
41897;SDS011;27576;53.366;-1.498;2023-04-30T10:46:39;19.35;;;14.45;;
41897;SDS011;27576;53.366;-1.498;2023-04-30T10:49:04;19.77;;;15.10;;
41897;SDS011;27576;53.366;-1.498;2023-04-30T10:51:49;16.77;;;13.15;;
41897;SDS011;27576;53.366;-1.498;2023-04-30T10:54:25;15.85;;;13.15;;
41897;SDS011;27576;53.366;-1.498;2023-04-30T10:56:53;18.83;;;13.73;;
41897;SDS011;27576;53.366;-1.498;2023-04-30T10:59:23;16.55;;;12.75;;
41897;SDS011;27576;53.366;-1.498;2023-04-30T11:01:56;15.20;;;12.45;;
41897;SDS011;27576;53.366;-1.498;2023-04-30T11:04:23;11.07;;;7.85;;
41897;SDS011;27576;53.366;-1.498;2023-04-30T11:09:14;6.72;;;4.20;;
41897;SDS011;27576;53.366;-1.498;2023-04-30T11:11:42;8.35;;;3.72;;
41897;SDS011;27576;53.366;-1.498;2023-04-30T11:14:19;5.18;;;4.35;;
41897;SDS011;27576;53.366;-1.498;2023-04-30T11:16:47;5.47;;;4.57;;
41897;SDS011;27576;53.366;-1.498;2023-04-30T11:19:14;5.22;;;3.88;;
41897;SDS011;27576;53.366;-1.498;2023-04-30T11:21:40;5.22;;;4.13;;
41897;SDS011;27576;53.366;-1.498;2023-04-30T11:27:34;8.60;;;6.55;;
41897;SDS011;27576;53.366;-1.498;2023-04-30T11:30:02;8.77;;;6.07;;
41897;SDS011;27576;53.366;-1.498;2023-04-30T11:32:34;9.73;;;7.20;;
41897;SDS011;27576;53.366;-1.498;2023-04-30T11:35:01;7.38;;;6.45;;
41897;SDS011;27576;53.366;-1.498;2023-04-30T11:37:30;8.48;;;6.80;;
41897;SDS011;27576;53.366;-1.498;2023-04-30T11:40:04;9.00;;;6.40;;
41897;SDS011;27576;53.366;-1.498;2023-04-30T11:42:31;7.93;;;6.28;;
41897;SDS011;27576;53.366;-1.498;2023-04-30T11:45:10;8.45;;;6.18;;
41897;SDS011;27576;53.366;-1.498;2023-04-30T11:47:41;6.85;;;5.35;;
41897;SDS011;27576;53.366;-1.498;2023-04-30T11:50:08;7.90;;;6.00;;
41897;SDS011;27576;53.366;-1.498;2023-04-30T11:52:35;7.93;;;5.80;;
41897;SDS011;27576;53.366;-1.498;2023-04-30T11:55:05;7.57;;;5.72;;
41897;SDS011;27576;53.366;-1.498;2023-04-30T11:57:44;7.88;;;6.47;;
41897;SDS011;27576;53.366;-1.498;2023-04-30T12:00:14;7.57;;;6.85;;
41897;SDS011;27576;53.366;-1.498;2023-04-30T12:02:45;8.73;;;7.40;;
41897;SDS011;27576;53.366;-1.498;2023-04-30T12:05:15;9.45;;;7.60;;
41897;SDS011;27576;53.366;-1.498;2023-04-30T12:07:54;9.90;;;6.72;;
41897;SDS011;27576;53.366;-1.498;2023-04-30T12:10:24;14.23;;;10.77;;
41897;SDS011;27576;53.366;-1.498;2023-04-30T12:12:50;16.48;;;11.48;;
41897;SDS011;27576;53.366;-1.498;2023-04-30T12:15:21;16.30;;;12.57;;
41897;SDS011;27576;53.366;-1.498;2023-04-30T12:17:50;13.75;;;11.55;;
41897;SDS011;27576;53.366;-1.498;2023-04-30T12:20:16;16.35;;;12.18;;
41897;SDS011;27576;53.366;-1.498;2023-04-30T12:22:42;14.88;;;12.52;;
41897;SDS011;27576;53.366;-1.498;2023-04-30T12:25:12;17.83;;;13.77;;
41897;SDS011;27576;53.366;-1.498;2023-04-30T12:27:44;16.65;;;12.75;;
41897;SDS011;27576;53.366;-1.498;2023-04-30T12:30:11;16.58;;;13.65;;
41897;SDS011;27576;53.366;-1.498;2023-04-30T12:32:38;14.00;;;12.38;;
41897;SDS011;27576;53.366;-1.498;2023-04-30T12:35:04;14.35;;;12.82;;
41897;SDS011;27576;53.366;-1.498;2023-04-30T12:37:30;18.17;;;14.07;;
41897;SDS011;27576;53.366;-1.498;2023-04-30T12:39:56;13.52;;;11.05;;
41897;SDS011;27576;53.366;-1.498;2023-04-30T12:42:21;14.07;;;11.82;;
41897;SDS011;27576;53.366;-1.498;2023-04-30T12:44:46;13.32;;;10.10;;
41897;SDS011;27576;53.366;-1.498;2023-04-30T12:47:12;14.60;;;10.77;;
41897;SDS011;27576;53.366;-1.498;2023-04-30T12:49:39;12.90;;;10.52;;
41897;SDS011;27576;53.366;-1.498;2023-04-30T12:52:08;14.05;;;10.40;;
41897;SDS011;27576;53.366;-1.498;2023-04-30T12:54:35;15.13;;;10.38;;
41897;SDS011;27576;53.366;-1.498;2023-04-30T12:57:05;12.32;;;10.35;;
41897;SDS011;27576;53.366;-1.498;2023-04-30T12:59:38;13.07;;;10.80;;
41897;SDS011;27576;53.366;-1.498;2023-04-30T13:02:08;11.75;;;9.07;;
41897;SDS011;27576;53.366;-1.498;2023-04-30T13:04:36;11.32;;;8.70;;
41897;SDS011;27576;53.366;-1.498;2023-04-30T13:07:01;11.20;;;9.07;;
41897;SDS011;27576;53.366;-1.498;2023-04-30T13:09:28;11.15;;;9.40;;
41897;SDS011;27576;53.366;-1.498;2023-04-30T13:11:53;10.90;;;9.73;;
41897;SDS011;27576;53.366;-1.498;2023-04-30T13:14:19;13.60;;;11.43;;
41897;SDS011;27576;53.366;-1.498;2023-04-30T13:16:44;13.05;;;10.43;;
41897;SDS011;27576;53.366;-1.498;2023-04-30T13:19:10;13.07;;;11.30;;
41897;SDS011;27576;53.366;-1.498;2023-04-30T13:21:36;15.40;;;12.48;;
41897;SDS011;27576;53.366;-1.498;2023-04-30T13:24:01;16.45;;;12.30;;
41897;SDS011;27576;53.366;-1.498;2023-04-30T13:26:27;12.70;;;11.32;;
41897;SDS011;27576;53.366;-1.498;2023-04-30T13:28:52;12.02;;;10.48;;
41897;SDS011;27576;53.366;-1.498;2023-04-30T13:31:18;15.27;;;11.52;;
41897;SDS011;27576;53.366;-1.498;2023-04-30T13:33:44;14.95;;;10.25;;
41897;SDS011;27576;53.366;-1.498;2023-04-30T13:36:11;11.23;;;9.65;;
41897;SDS011;27576;53.366;-1.498;2023-04-30T13:38:36;11.48;;;9.23;;
41897;SDS011;27576;53.366;-1.498;2023-04-30T13:41:03;13.90;;;11.15;;
41897;SDS011;27576;53.366;-1.498;2023-04-30T13:43:29;14.10;;;11.15;;
41897;SDS011;27576;53.366;-1.498;2023-04-30T13:45:55;12.93;;;11.43;;
41897;SDS011;27576;53.366;-1.498;2023-04-30T13:48:22;14.55;;;10.38;;
41897;SDS011;27576;53.366;-1.498;2023-04-30T13:50:48;12.88;;;11.05;;
41897;SDS011;27576;53.366;-1.498;2023-04-30T13:53:13;14.80;;;12.02;;
41897;SDS011;27576;53.366;-1.498;2023-04-30T13:55:39;16.45;;;13.48;;
41897;SDS011;27576;53.366;-1.498;2023-04-30T13:58:04;15.10;;;11.80;;
41897;SDS011;27576;53.366;-1.498;2023-04-30T14:00:30;13.10;;;10.50;;
41897;SDS011;27576;53.366;-1.498;2023-04-30T14:02:55;12.02;;;9.05;;
41897;SDS011;27576;53.366;-1.498;2023-04-30T14:05:20;11.13;;;8.88;;
41897;SDS011;27576;53.366;-1.498;2023-04-30T14:07:46;12.88;;;10.07;;
41897;SDS011;27576;53.366;-1.498;2023-04-30T14:10:11;9.63;;;8.63;;
41897;SDS011;27576;53.366;-1.498;2023-04-30T14:12:38;12.55;;;9.32;;
41897;SDS011;27576;53.366;-1.498;2023-04-30T14:15:04;14.75;;;9.88;;
41897;SDS011;27576;53.366;-1.498;2023-04-30T14:17:30;16.35;;;10.88;;
41897;SDS011;27576;53.366;-1.498;2023-04-30T14:19:55;13.25;;;10.05;;
41897;SDS011;27576;53.366;-1.498;2023-04-30T14:22:21;15.55;;;11.90;;
41897;SDS011;27576;53.366;-1.498;2023-04-30T14:24:48;13.57;;;10.40;;
41897;SDS011;27576;53.366;-1.498;2023-04-30T14:27:16;13.18;;;10.40;;
41897;SDS011;27576;53.366;-1.498;2023-04-30T14:29:42;13.55;;;10.80;;
41897;SDS011;27576;53.366;-1.498;2023-04-30T14:32:07;14.38;;;11.75;;
41897;SDS011;27576;53.366;-1.498;2023-04-30T14:34:32;15.90;;;12.13;;
41897;SDS011;27576;53.366;-1.498;2023-04-30T14:36:58;15.63;;;11.35;;
41897;SDS011;27576;53.366;-1.498;2023-04-30T14:39:25;15.23;;;11.80;;
41897;SDS011;27576;53.366;-1.498;2023-04-30T14:41:52;15.57;;;13.25;;